sensor_id;sensor_type;location;lat;lon;timestamp;pressure;altitude;pressure_sealevel;temperature;humidity
57568;BME280;43403;51.948;5.922;2023-02-18T00:01:00;102165.25;;;9.81;100.00
57568;BME280;43403;51.948;5.922;2023-02-18T00:03:27;102151.09;;;9.83;100.00
57568;BME280;43403;51.948;5.922;2023-02-18T00:05:54;102146.28;;;9.77;100.00
57568;BME280;43403;51.948;5.922;2023-02-18T00:08:21;102137.25;;;9.81;100.00
57568;BME280;43403;51.948;5.922;2023-02-18T00:10:47;102145.84;;;9.83;100.00
57568;BME280;43403;51.948;5.922;2023-02-18T00:13:14;102136.94;;;9.86;100.00
57568;BME280;43403;51.948;5.922;2023-02-18T00:15:40;102138.00;;;9.83;100.00
57568;BME280;43403;51.948;5.922;2023-02-18T00:18:06;102132.75;;;9.83;100.00
57568;BME280;43403;51.948;5.922;2023-02-18T00:20:33;102131.28;;;9.79;100.00
57568;BME280;43403;51.948;5.922;2023-02-18T00:23:01;102134.88;;;9.78;100.00
57568;BME280;43403;51.948;5.922;2023-02-18T00:25:28;102137.38;;;9.80;100.00
57568;BME280;43403;51.948;5.922;2023-02-18T00:27:54;102135.38;;;9.83;100.00
57568;BME280;43403;51.948;5.922;2023-02-18T00:30:20;102132.84;;;9.82;100.00
57568;BME280;43403;51.948;5.922;2023-02-18T00:32:47;102128.34;;;9.84;100.00
57568;BME280;43403;51.948;5.922;2023-02-18T00:35:13;102131.09;;;9.82;100.00
57568;BME280;43403;51.948;5.922;2023-02-18T00:37:39;102134.75;;;9.80;100.00
57568;BME280;43403;51.948;5.922;2023-02-18T00:40:06;102133.91;;;9.79;100.00
57568;BME280;43403;51.948;5.922;2023-02-18T00:42:32;102118.81;;;9.83;100.00
57568;BME280;43403;51.948;5.922;2023-02-18T00:44:59;102123.94;;;9.84;100.00
57568;BME280;43403;51.948;5.922;2023-02-18T00:47:25;102114.19;;;9.86;100.00
57568;BME280;43403;51.948;5.922;2023-02-18T00:49:51;102109.88;;;9.85;100.00
57568;BME280;43403;51.948;5.922;2023-02-18T00:52:17;102105.38;;;9.87;100.00
57568;BME280;43403;51.948;5.922;2023-02-18T00:54:44;102094.78;;;9.89;100.00
57568;BME280;43403;51.948;5.922;2023-02-18T00:57:10;102092.53;;;9.96;100.00
57568;BME280;43403;51.948;5.922;2023-02-18T00:59:36;102095.16;;;9.96;100.00
57568;BME280;43403;51.948;5.922;2023-02-18T01:02:03;102088.78;;;10.00;100.00
57568;BME280;43403;51.948;5.922;2023-02-18T01:04:29;102092.13;;;10.02;100.00
57568;BME280;43403;51.948;5.922;2023-02-18T01:06:55;102099.13;;;10.01;100.00
57568;BME280;43403;51.948;5.922;2023-02-18T01:09:21;102094.84;;;10.00;100.00
57568;BME280;43403;51.948;5.922;2023-02-18T01:11:51;102089.59;;;10.00;100.00
57568;BME280;43403;51.948;5.922;2023-02-18T01:14:17;102084.13;;;10.03;100.00
57568;BME280;43403;51.948;5.922;2023-02-18T01:16:43;102087.59;;;10.04;100.00
57568;BME280;43403;51.948;5.922;2023-02-18T01:19:10;102090.44;;;10.01;100.00
57568;BME280;43403;51.948;5.922;2023-02-18T01:21:36;102093.47;;;10.07;100.00
57568;BME280;43403;51.948;5.922;2023-02-18T01:24:02;102082.53;;;10.14;100.00
57568;BME280;43403;51.948;5.922;2023-02-18T01:26:29;102084.19;;;10.15;100.00
57568;BME280;43403;51.948;5.922;2023-02-18T01:28:55;102085.25;;;10.12;100.00
57568;BME280;43403;51.948;5.922;2023-02-18T01:31:21;102085.00;;;10.15;100.00
57568;BME280;43403;51.948;5.922;2023-02-18T01:33:48;102089.31;;;10.16;100.00
57568;BME280;43403;51.948;5.922;2023-02-18T01:36:15;102075.69;;;10.11;100.00
57568;BME280;43403;51.948;5.922;2023-02-18T01:38:41;102079.91;;;10.14;100.00
57568;BME280;43403;51.948;5.922;2023-02-18T01:41:08;102071.91;;;10.15;100.00
57568;BME280;43403;51.948;5.922;2023-02-18T01:43:35;102072.75;;;10.16;100.00
57568;BME280;43403;51.948;5.922;2023-02-18T01:48:38;102067.50;;;10.16;100.00
57568;BME280;43403;51.948;5.922;2023-02-18T01:53:47;102064.28;;;10.12;100.00
57568;BME280;43403;51.948;5.922;2023-02-18T01:56:16;102050.19;;;10.13;100.00
57568;BME280;43403;51.948;5.922;2023-02-18T01:58:44;102059.25;;;10.09;100.00
57568;BME280;43403;51.948;5.922;2023-02-18T02:01:11;102056.97;;;10.04;100.00
57568;BME280;43403;51.948;5.922;2023-02-18T02:03:37;102057.34;;;10.11;100.00
57568;BME280;43403;51.948;5.922;2023-02-18T02:06:08;102045.41;;;10.07;100.00
57568;BME280;43403;51.948;5.922;2023-02-18T02:08:35;102039.72;;;10.13;100.00
57568;BME280;43403;51.948;5.922;2023-02-18T02:11:03;102043.41;;;10.10;100.00
57568;BME280;43403;51.948;5.922;2023-02-18T02:16:23;102026.97;;;10.08;100.00
57568;BME280;43403;51.948;5.922;2023-02-18T02:18:59;102031.13;;;10.11;100.00
57568;BME280;43403;51.948;5.922;2023-02-18T02:21:36;102027.78;;;10.09;100.00
57568;BME280;43403;51.948;5.922;2023-02-18T02:34:52;101991.69;;;10.13;100.00
57568;BME280;43403;51.948;5.922;2023-02-18T02:44:46;101971.22;;;10.18;100.00
57568;BME280;43403;51.948;5.922;2023-02-18T02:47:18;101969.22;;;10.21;100.00
57568;BME280;43403;51.948;5.922;2023-02-18T02:49:57;101958.59;;;10.23;100.00
57568;BME280;43403;51.948;5.922;2023-02-18T02:52:28;101962.63;;;10.16;100.00
57568;BME280;43403;51.948;5.922;2023-02-18T02:54:56;101940.69;;;10.17;100.00
57568;BME280;43403;51.948;5.922;2023-02-18T02:59:50;101924.50;;;10.23;100.00
57568;BME280;43403;51.948;5.922;2023-02-18T03:07:16;101915.44;;;10.27;100.00
57568;BME280;43403;51.948;5.922;2023-02-18T03:09:56;101906.84;;;10.25;100.00
57568;BME280;43403;51.948;5.922;2023-02-18T03:17:30;101896.50;;;10.23;100.00
57568;BME280;43403;51.948;5.922;2023-02-18T03:20:02;101888.63;;;10.23;100.00
57568;BME280;43403;51.948;5.922;2023-02-18T03:22:33;101893.63;;;10.26;100.00
57568;BME280;43403;51.948;5.922;2023-02-18T03:25:03;101880.41;;;10.28;100.00
57568;BME280;43403;51.948;5.922;2023-02-18T03:27:31;101880.41;;;10.28;100.00
57568;BME280;43403;51.948;5.922;2023-02-18T03:30:03;101883.03;;;10.28;100.00
57568;BME280;43403;51.948;5.922;2023-02-18T03:32:30;101874.00;;;10.32;100.00
57568;BME280;43403;51.948;5.922;2023-02-18T03:34:59;101867.28;;;10.28;100.00
57568;BME280;43403;51.948;5.922;2023-02-18T03:37:28;101879.25;;;10.32;100.00
57568;BME280;43403;51.948;5.922;2023-02-18T03:39:55;101871.72;;;10.27;100.00
57568;BME280;43403;51.948;5.922;2023-02-18T03:42:25;101861.72;;;10.33;100.00
57568;BME280;43403;51.948;5.922;2023-02-18T03:44:52;101857.03;;;10.25;100.00
57568;BME280;43403;51.948;5.922;2023-02-18T03:47:19;101861.22;;;10.27;100.00
57568;BME280;43403;51.948;5.922;2023-02-18T03:49:45;101865.50;;;10.28;100.00
57568;BME280;43403;51.948;5.922;2023-02-18T03:52:11;101861.22;;;10.27;100.00
57568;BME280;43403;51.948;5.922;2023-02-18T03:54:38;101849.88;;;10.27;100.00
57568;BME280;43403;51.948;5.922;2023-02-18T03:57:04;101837.84;;;10.24;100.00
57568;BME280;43403;51.948;5.922;2023-02-18T03:59:30;101832.50;;;10.26;100.00
57568;BME280;43403;51.948;5.922;2023-02-18T04:01:57;101819.16;;;10.29;100.00
57568;BME280;43403;51.948;5.922;2023-02-18T04:04:23;101821.19;;;10.25;100.00
57568;BME280;43403;51.948;5.922;2023-02-18T04:06:50;101819.50;;;10.24;100.00
57568;BME280;43403;51.948;5.922;2023-02-18T04:09:16;101819.25;;;10.27;100.00
57568;BME280;43403;51.948;5.922;2023-02-18T04:11:42;101812.97;;;10.30;100.00
57568;BME280;43403;51.948;5.922;2023-02-18T04:14:08;101804.03;;;10.33;100.00
57568;BME280;43403;51.948;5.922;2023-02-18T04:16:35;101804.03;;;10.33;100.00
57568;BME280;43403;51.948;5.922;2023-02-18T04:19:01;101798.91;;;10.31;100.00
57568;BME280;43403;51.948;5.922;2023-02-18T04:21:28;101789.56;;;10.27;100.00
57568;BME280;43403;51.948;5.922;2023-02-18T04:23:54;101793.66;;;10.31;100.00
57568;BME280;43403;51.948;5.922;2023-02-18T04:26:21;101795.78;;;10.26;100.00
57568;BME280;43403;51.948;5.922;2023-02-18T04:28:47;101786.94;;;10.27;100.00
57568;BME280;43403;51.948;5.922;2023-02-18T04:31:14;101792.34;;;10.25;100.00
57568;BME280;43403;51.948;5.922;2023-02-18T04:33:40;101790.91;;;10.21;100.00
57568;BME280;43403;51.948;5.922;2023-02-18T04:36:07;101797.56;;;10.25;100.00
57568;BME280;43403;51.948;5.922;2023-02-18T04:38:34;101795.28;;;10.21;100.00
57568;BME280;43403;51.948;5.922;2023-02-18T04:41:00;101790.53;;;10.15;100.00
57568;BME280;43403;51.948;5.922;2023-02-18T04:43:27;101789.09;;;10.10;100.00
57568;BME280;43403;51.948;5.922;2023-02-18T04:45:53;101781.84;;;10.14;100.00
57568;BME280;43403;51.948;5.922;2023-02-18T04:48:19;101783.63;;;10.14;100.00
57568;BME280;43403;51.948;5.922;2023-02-18T04:50:46;101770.53;;;10.14;100.00
57568;BME280;43403;51.948;5.922;2023-02-18T04:53:13;101769.56;;;10.15;100.00
57568;BME280;43403;51.948;5.922;2023-02-18T04:55:39;101771.34;;;10.14;100.00
57568;BME280;43403;51.948;5.922;2023-02-18T04:58:05;101772.28;;;10.13;100.00
57568;BME280;43403;51.948;5.922;2023-02-18T05:00:31;101762.53;;;10.15;100.00
57568;BME280;43403;51.948;5.922;2023-02-18T05:02:58;101756.34;;;10.16;100.00
57568;BME280;43403;51.948;5.922;2023-02-18T05:05:24;101755.63;;;10.14;100.00
57568;BME280;43403;51.948;5.922;2023-02-18T05:07:50;101748.47;;;10.16;100.00
57568;BME280;43403;51.948;5.922;2023-02-18T05:10:17;101748.25;;;10.19;100.00
57568;BME280;43403;51.948;5.922;2023-02-18T05:12:43;101735.97;;;10.20;100.00
57568;BME280;43403;51.948;5.922;2023-02-18T05:15:09;101737.97;;;10.16;100.00
57568;BME280;43403;51.948;5.922;2023-02-18T05:17:36;101728.69;;;10.12;100.00
57568;BME280;43403;51.948;5.922;2023-02-18T05:20:02;101717.25;;;10.13;100.00
57568;BME280;43403;51.948;5.922;2023-02-18T05:22:29;101727.97;;;10.10;100.00
57568;BME280;43403;51.948;5.922;2023-02-18T05:24:55;101716.69;;;10.09;100.00
57568;BME280;43403;51.948;5.922;2023-02-18T05:27:21;101728.59;;;10.14;100.00
57568;BME280;43403;51.948;5.922;2023-02-18T05:29:47;101718.66;;;10.17;100.00
57568;BME280;43403;51.948;5.922;2023-02-18T05:32:14;101725.69;;;10.17;100.00
57568;BME280;43403;51.948;5.922;2023-02-18T05:34:40;101722.13;;;10.18;100.00
57568;BME280;43403;51.948;5.922;2023-02-18T05:37:06;101729.63;;;10.22;100.00
57568;BME280;43403;51.948;5.922;2023-02-18T05:39:33;101721.06;;;10.20;100.00
57568;BME280;43403;51.948;5.922;2023-02-18T05:41:59;101724.06;;;10.16;100.00
57568;BME280;43403;51.948;5.922;2023-02-18T05:44:26;101712.84;;;10.14;100.00
57568;BME280;43403;51.948;5.922;2023-02-18T05:46:56;101714.75;;;10.12;100.00
57568;BME280;43403;51.948;5.922;2023-02-18T05:49:23;101713.31;;;10.30;100.00
57568;BME280;43403;51.948;5.922;2023-02-18T05:51:49;101716.03;;;10.28;100.00
57568;BME280;43403;51.948;5.922;2023-02-18T05:54:15;101712.69;;;10.26;100.00
57568;BME280;43403;51.948;5.922;2023-02-18T05:56:42;101705.44;;;10.30;100.00
57568;BME280;43403;51.948;5.922;2023-02-18T05:59:08;101721.75;;;10.22;100.00
57568;BME280;43403;51.948;5.922;2023-02-18T06:01:34;101705.09;;;10.23;100.00
57568;BME280;43403;51.948;5.922;2023-02-18T06:04:01;101705.66;;;10.27;100.00
57568;BME280;43403;51.948;5.922;2023-02-18T06:06:27;101703.41;;;10.22;100.00
57568;BME280;43403;51.948;5.922;2023-02-18T06:08:53;101701.38;;;10.15;100.00
57568;BME280;43403;51.948;5.922;2023-02-18T06:11:20;101701.50;;;10.13;100.00
57568;BME280;43403;51.948;5.922;2023-02-18T06:13:46;101692.50;;;10.06;100.00
57568;BME280;43403;51.948;5.922;2023-02-18T06:16:12;101696.31;;;10.02;100.00
57568;BME280;43403;51.948;5.922;2023-02-18T06:18:39;101692.50;;;10.06;100.00
57568;BME280;43403;51.948;5.922;2023-02-18T06:21:06;101696.16;;;10.03;100.00
57568;BME280;43403;51.948;5.922;2023-02-18T06:23:32;101688.28;;;10.03;100.00
57568;BME280;43403;51.948;5.922;2023-02-18T06:25:58;101689.97;;;10.04;100.00
57568;BME280;43403;51.948;5.922;2023-02-18T06:28:25;101695.81;;;10.08;100.00
57568;BME280;43403;51.948;5.922;2023-02-18T06:30:51;101703.31;;;10.01;100.00
57568;BME280;43403;51.948;5.922;2023-02-18T06:33:17;101702.75;;;9.98;100.00
57568;BME280;43403;51.948;5.922;2023-02-18T06:35:53;101696.06;;;9.94;100.00
57568;BME280;43403;51.948;5.922;2023-02-18T06:38:20;101707.25;;;9.96;100.00
57568;BME280;43403;51.948;5.922;2023-02-18T06:40:47;101689.50;;;9.99;100.00
57568;BME280;43403;51.948;5.922;2023-02-18T06:43:13;101702.59;;;9.99;100.00
57568;BME280;43403;51.948;5.922;2023-02-18T06:45:39;101703.47;;;10.00;100.00
57568;BME280;43403;51.948;5.922;2023-02-18T06:48:06;101703.09;;;9.93;100.00
57568;BME280;43403;51.948;5.922;2023-02-18T06:50:32;101708.22;;;9.95;100.00
57568;BME280;43403;51.948;5.922;2023-02-18T06:52:59;101712.03;;;9.90;100.00
57568;BME280;43403;51.948;5.922;2023-02-18T06:55:25;101711.06;;;9.92;100.00
57568;BME280;43403;51.948;5.922;2023-02-18T06:57:51;101713.22;;;9.86;100.00
57568;BME280;43403;51.948;5.922;2023-02-18T07:00:18;101719.41;;;9.85;100.00
57568;BME280;43403;51.948;5.922;2023-02-18T07:02:44;101714.44;;;9.82;100.00
57568;BME280;43403;51.948;5.922;2023-02-18T07:05:10;101725.03;;;9.81;100.00
57568;BME280;43403;51.948;5.922;2023-02-18T07:07:37;101708.94;;;9.85;100.00
57568;BME280;43403;51.948;5.922;2023-02-18T07:10:03;101718.09;;;9.80;100.00
57568;BME280;43403;51.948;5.922;2023-02-18T07:12:30;101717.38;;;9.78;100.00
57568;BME280;43403;51.948;5.922;2023-02-18T07:14:56;101714.75;;;9.78;100.00
57568;BME280;43403;51.948;5.922;2023-02-18T07:17:22;101721.69;;;9.79;100.00
57568;BME280;43403;51.948;5.922;2023-02-18T07:19:49;101714.91;;;9.76;100.00
57568;BME280;43403;51.948;5.922;2023-02-18T07:22:15;101713.22;;;9.75;100.00
57568;BME280;43403;51.948;5.922;2023-02-18T07:24:42;101702.53;;;9.78;100.00
57568;BME280;43403;51.948;5.922;2023-02-18T07:27:08;101708.00;;;9.75;100.00
57568;BME280;43403;51.948;5.922;2023-02-18T07:29:34;101709.19;;;9.82;100.00
57568;BME280;43403;51.948;5.922;2023-02-18T07:32:01;101717.66;;;9.86;100.00
57568;BME280;43403;51.948;5.922;2023-02-18T07:34:27;101715.84;;;9.86;100.00
57568;BME280;43403;51.948;5.922;2023-02-18T07:36:53;101708.47;;;9.80;100.00
57568;BME280;43403;51.948;5.922;2023-02-18T07:39:20;101712.03;;;9.79;100.00
57568;BME280;43403;51.948;5.922;2023-02-18T07:41:46;101712.84;;;9.80;100.00
57568;BME280;43403;51.948;5.922;2023-02-18T07:44:13;101702.97;;;9.83;100.00
57568;BME280;43403;51.948;5.922;2023-02-18T07:46:40;101702.53;;;9.78;100.00
57568;BME280;43403;51.948;5.922;2023-02-18T07:49:06;101709.53;;;9.78;100.00
57568;BME280;43403;51.948;5.922;2023-02-18T07:51:33;101714.66;;;9.79;100.00
57568;BME280;43403;51.948;5.922;2023-02-18T07:54:00;101709.31;;;9.81;100.00
57568;BME280;43403;51.948;5.922;2023-02-18T07:56:26;101710.72;;;9.85;100.00
57568;BME280;43403;51.948;5.922;2023-02-18T07:58:52;101719.53;;;9.84;100.00
57568;BME280;43403;51.948;5.922;2023-02-18T08:01:19;101700.13;;;9.86;100.00
57568;BME280;43403;51.948;5.922;2023-02-18T08:03:45;101719.31;;;9.87;100.00
57568;BME280;43403;51.948;5.922;2023-02-18T08:06:18;101705.59;;;9.83;100.00
57568;BME280;43403;51.948;5.922;2023-02-18T08:08:45;101703.56;;;9.87;100.00
57568;BME280;43403;51.948;5.922;2023-02-18T08:11:11;101691.44;;;9.86;100.00
57568;BME280;43403;51.948;5.922;2023-02-18T08:13:44;101702.63;;;9.88;100.00
57568;BME280;43403;51.948;5.922;2023-02-18T08:16:12;101712.63;;;9.94;100.00
57568;BME280;43403;51.948;5.922;2023-02-18T08:18:39;101710.34;;;9.89;100.00
57568;BME280;43403;51.948;5.922;2023-02-18T08:21:05;101711.22;;;9.90;100.00
57568;BME280;43403;51.948;5.922;2023-02-18T08:23:31;101712.63;;;9.94;100.00
57568;BME280;43403;51.948;5.922;2023-02-18T08:25:58;101701.44;;;9.92;100.00
57568;BME280;43403;51.948;5.922;2023-02-18T08:28:24;101749.66;;;9.89;100.00
57568;BME280;43403;51.948;5.922;2023-02-18T08:30:51;101708.59;;;9.90;100.00
57568;BME280;43403;51.948;5.922;2023-02-18T08:33:18;101719.31;;;9.87;100.00
57568;BME280;43403;51.948;5.922;2023-02-18T08:35:45;101731.56;;;9.86;100.00
57568;BME280;43403;51.948;5.922;2023-02-18T08:38:12;101716.56;;;9.88;100.00
57568;BME280;43403;51.948;5.922;2023-02-18T08:40:39;101719.41;;;9.85;100.00
57568;BME280;43403;51.948;5.922;2023-02-18T08:43:06;101713.72;;;9.80;100.00
57568;BME280;43403;51.948;5.922;2023-02-18T08:45:32;101727.88;;;9.78;100.00
57568;BME280;43403;51.948;5.922;2023-02-18T08:48:01;101717.88;;;9.72;100.00
57568;BME280;43403;51.948;5.922;2023-02-18T08:50:45;101708.69;;;9.77;100.00
57568;BME280;43403;51.948;5.922;2023-02-18T08:53:11;101734.06;;;9.77;100.00
57568;BME280;43403;51.948;5.922;2023-02-18T08:55:38;101725.25;;;9.78;100.00
57568;BME280;43403;51.948;5.922;2023-02-18T08:58:05;101726.22;;;9.77;100.00
57568;BME280;43403;51.948;5.922;2023-02-18T09:00:32;101725.50;;;9.75;100.00
57568;BME280;43403;51.948;5.922;2023-02-18T09:02:58;101729.66;;;9.77;100.00
57568;BME280;43403;51.948;5.922;2023-02-18T09:05:24;101729.91;;;9.74;100.00
57568;BME280;43403;51.948;5.922;2023-02-18T09:07:51;101731.31;;;9.67;100.00
57568;BME280;43403;51.948;5.922;2023-02-18T09:10:17;101744.19;;;9.59;100.00
57568;BME280;43403;51.948;5.922;2023-02-18T09:12:43;101737.84;;;9.50;100.00
57568;BME280;43403;51.948;5.922;2023-02-18T09:15:10;101732.25;;;9.43;100.00
57568;BME280;43403;51.948;5.922;2023-02-18T09:17:36;101730.34;;;9.45;100.00
57568;BME280;43403;51.948;5.922;2023-02-18T09:20:03;101734.50;;;9.37;100.00
57568;BME280;43403;51.948;5.922;2023-02-18T09:22:29;101726.06;;;9.33;100.00
57568;BME280;43403;51.948;5.922;2023-02-18T09:24:57;101732.22;;;9.32;100.00
57568;BME280;43403;51.948;5.922;2023-02-18T09:27:24;101733.91;;;9.33;100.00
57568;BME280;43403;51.948;5.922;2023-02-18T09:29:50;101734.50;;;9.25;100.00
57568;BME280;43403;51.948;5.922;2023-02-18T09:32:17;101733.63;;;9.25;100.00
57568;BME280;43403;51.948;5.922;2023-02-18T09:34:59;101736.25;;;9.25;100.00
57568;BME280;43403;51.948;5.922;2023-02-18T09:37:25;101738.03;;;9.24;100.00
57568;BME280;43403;51.948;5.922;2023-02-18T09:39:51;101734.09;;;9.19;100.00
57568;BME280;43403;51.948;5.922;2023-02-18T09:42:26;101741.63;;;9.23;100.00
57568;BME280;43403;51.948;5.922;2023-02-18T09:44:54;101735.53;;;9.23;100.00
57568;BME280;43403;51.948;5.922;2023-02-18T09:47:30;101732.09;;;9.22;100.00
57568;BME280;43403;51.948;5.922;2023-02-18T09:49:59;101729.13;;;9.27;100.00
57568;BME280;43403;51.948;5.922;2023-02-18T09:52:30;101730.44;;;9.33;100.00
57568;BME280;43403;51.948;5.922;2023-02-18T09:54:57;101728.69;;;9.33;100.00
57568;BME280;43403;51.948;5.922;2023-02-18T09:57:28;101727.81;;;9.33;100.00
57568;BME280;43403;51.948;5.922;2023-02-18T09:59:59;101757.47;;;9.33;100.00
57568;BME280;43403;51.948;5.922;2023-02-18T10:02:27;101729.97;;;9.39;100.00
57568;BME280;43403;51.948;5.922;2023-02-18T10:04:53;101737.97;;;9.37;100.00
57568;BME280;43403;51.948;5.922;2023-02-18T10:07:22;101740.44;;;9.39;100.00
57568;BME280;43403;51.948;5.922;2023-02-18T10:09:53;101745.25;;;9.45;100.00
57568;BME280;43403;51.948;5.922;2023-02-18T10:12:22;101751.19;;;9.47;100.00
57568;BME280;43403;51.948;5.922;2023-02-18T10:14:56;101745.09;;;9.46;100.00
57568;BME280;43403;51.948;5.922;2023-02-18T10:17:23;101769.38;;;9.48;100.00
57568;BME280;43403;51.948;5.922;2023-02-18T10:19:51;101761.19;;;9.53;100.00
57568;BME280;43403;51.948;5.922;2023-02-18T10:22:18;101765.47;;;9.54;100.00
57568;BME280;43403;51.948;5.922;2023-02-18T10:27:15;101774.19;;;9.55;100.00
57568;BME280;43403;51.948;5.922;2023-02-18T10:29:43;101777.50;;;9.45;100.00
57568;BME280;43403;51.948;5.922;2023-02-18T10:32:12;101774.97;;;9.44;100.00
57568;BME280;43403;51.948;5.922;2023-02-18T10:34:43;101782.59;;;9.36;100.00
57568;BME280;43403;51.948;5.922;2023-02-18T10:39:55;101779.72;;;9.39;100.00
57568;BME280;43403;51.948;5.922;2023-02-18T10:47:44;101771.50;;;9.32;100.00
57568;BME280;43403;51.948;5.922;2023-02-18T10:50:17;101783.53;;;9.35;100.00
57568;BME280;43403;51.948;5.922;2023-02-18T10:52:49;101786.63;;;9.40;100.00
57568;BME280;43403;51.948;5.922;2023-02-18T10:55:17;101782.22;;;9.40;100.00
57568;BME280;43403;51.948;5.922;2023-02-18T10:57:48;101791.28;;;9.36;100.00
57568;BME280;43403;51.948;5.922;2023-02-18T11:00:16;101787.81;;;9.36;100.00
57568;BME280;43403;51.948;5.922;2023-02-18T11:02:44;101785.22;;;9.36;100.00
57568;BME280;43403;51.948;5.922;2023-02-18T11:05:23;101796.03;;;9.42;100.00
57568;BME280;43403;51.948;5.922;2023-02-18T11:07:52;101789.88;;;9.43;100.00
57568;BME280;43403;51.948;5.922;2023-02-18T11:10:23;101782.94;;;9.42;100.00
57568;BME280;43403;51.948;5.922;2023-02-18T11:12:59;101786.19;;;9.46;100.00
57568;BME280;43403;51.948;5.922;2023-02-18T11:15:27;101785.09;;;9.48;100.00
57568;BME280;43403;51.948;5.922;2023-02-18T11:17:54;101782.97;;;9.54;100.00
57568;BME280;43403;51.948;5.922;2023-02-18T11:22:56;101792.66;;;9.64;100.00
57568;BME280;43403;51.948;5.922;2023-02-18T11:25:24;101785.97;;;9.72;100.00
57568;BME280;43403;51.948;5.922;2023-02-18T11:27:54;101783.25;;;9.73;100.00
57568;BME280;43403;51.948;5.922;2023-02-18T11:30:22;101777.06;;;9.74;100.00
57568;BME280;43403;51.948;5.922;2023-02-18T11:32:50;101780.28;;;9.78;100.00
57568;BME280;43403;51.948;5.922;2023-02-18T11:35:18;101772.91;;;9.83;100.00
57568;BME280;43403;51.948;5.922;2023-02-18T11:37:44;101755.16;;;9.86;100.00
57568;BME280;43403;51.948;5.922;2023-02-18T11:40:22;101770.78;;;9.88;100.00
57568;BME280;43403;51.948;5.922;2023-02-18T11:42:51;101774.94;;;9.90;100.00
57568;BME280;43403;51.948;5.922;2023-02-18T11:45:28;101775.38;;;9.96;100.00
57568;BME280;43403;51.948;5.922;2023-02-18T11:48:38;101771.59;;;10.00;100.00
57568;BME280;43403;51.948;5.922;2023-02-18T11:50:51;101761.22;;;9.98;100.00
57568;BME280;43403;51.948;5.922;2023-02-18T11:53:27;101753.38;;;10.09;100.00
57568;BME280;43403;51.948;5.922;2023-02-18T11:56:00;101759.91;;;10.15;100.00
57568;BME280;43403;51.948;5.922;2023-02-18T11:58:29;101767.66;;;10.17;100.00
57568;BME280;43403;51.948;5.922;2023-02-18T12:01:00;101775.41;;;10.18;100.00
57568;BME280;43403;51.948;5.922;2023-02-18T12:06:01;101767.75;;;10.26;100.00
57568;BME280;43403;51.948;5.922;2023-02-18T12:08:30;101769.78;;;10.23;100.00
57568;BME280;43403;51.948;5.922;2023-02-18T12:11:11;101762.78;;;10.23;100.00
57568;BME280;43403;51.948;5.922;2023-02-18T12:13:58;101772.28;;;10.24;100.00
57568;BME280;43403;51.948;5.922;2023-02-18T12:27:15;101780.41;;;10.33;100.00
57568;BME280;43403;51.948;5.922;2023-02-18T12:35:20;101767.88;;;10.25;100.00
57568;BME280;43403;51.948;5.922;2023-02-18T12:43:11;101761.34;;;10.19;100.00
57568;BME280;43403;51.948;5.922;2023-02-18T12:45:51;101766.44;;;10.21;100.00
57568;BME280;43403;51.948;5.922;2023-02-18T12:50:54;101769.31;;;10.29;100.00
57568;BME280;43403;51.948;5.922;2023-02-18T12:56:26;101768.47;;;10.28;100.00
57568;BME280;43403;51.948;5.922;2023-02-18T12:59:11;101773.25;;;10.35;100.00
57568;BME280;43403;51.948;5.922;2023-02-18T13:01:45;101768.72;;;10.37;100.00
57568;BME280;43403;51.948;5.922;2023-02-18T13:04:33;101770.63;;;10.35;100.00
57568;BME280;43403;51.948;5.922;2023-02-18T13:09:53;101767.56;;;10.41;100.00
57568;BME280;43403;51.948;5.922;2023-02-18T13:16:12;101775.97;;;10.44;100.00
57568;BME280;43403;51.948;5.922;2023-02-18T13:18:10;101780.88;;;10.49;100.00
57568;BME280;43403;51.948;5.922;2023-02-18T13:23:09;101785.16;;;10.50;100.00
57568;BME280;43403;51.948;5.922;2023-02-18T13:25:41;101778.47;;;10.57;100.00
57568;BME280;43403;51.948;5.922;2023-02-18T13:28:14;101780.28;;;10.57;100.00
57568;BME280;43403;51.948;5.922;2023-02-18T13:30:46;101775.97;;;10.56;100.00
57568;BME280;43403;51.948;5.922;2023-02-18T13:35:42;101769.03;;;10.66;100.00
57568;BME280;43403;51.948;5.922;2023-02-18T13:40:54;101771.63;;;10.66;100.00
57568;BME280;43403;51.948;5.922;2023-02-18T13:46:09;101765.09;;;10.60;100.00
57568;BME280;43403;51.948;5.922;2023-02-18T13:48:39;101756.88;;;10.65;100.00
57568;BME280;43403;51.948;5.922;2023-02-18T13:51:07;101772.34;;;10.68;100.00
57568;BME280;43403;51.948;5.922;2023-02-18T13:53:35;101770.94;;;10.64;100.00
57568;BME280;43403;51.948;5.922;2023-02-18T13:58:30;101767.97;;;10.68;100.00
57568;BME280;43403;51.948;5.922;2023-02-18T14:05:54;101760.44;;;10.64;100.00
57568;BME280;43403;51.948;5.922;2023-02-18T14:08:36;101770.09;;;10.63;100.00
57568;BME280;43403;51.948;5.922;2023-02-18T14:13:37;101773.75;;;10.72;100.00
57568;BME280;43403;51.948;5.922;2023-02-18T14:16:05;101773.75;;;10.72;100.00
57568;BME280;43403;51.948;5.922;2023-02-18T14:18:33;101770.59;;;10.68;100.00
57568;BME280;43403;51.948;5.922;2023-02-18T14:21:21;101765.34;;;10.68;100.00
57568;BME280;43403;51.948;5.922;2023-02-18T14:26:20;101779.59;;;10.76;100.00
57568;BME280;43403;51.948;5.922;2023-02-18T14:33:49;101780.69;;;10.73;100.00
57568;BME280;43403;51.948;5.922;2023-02-18T14:36:24;101784.53;;;10.69;100.00
57568;BME280;43403;51.948;5.922;2023-02-18T14:41:42;101783.56;;;10.70;100.00
57568;BME280;43403;51.948;5.922;2023-02-18T14:49:43;101781.91;;;10.69;100.00
57568;BME280;43403;51.948;5.922;2023-02-18T14:52:17;101787.03;;;10.71;100.00
57568;BME280;43403;51.948;5.922;2023-02-18T14:54:47;101776.88;;;10.77;100.00